sensor_id;sensor_type;location;lat;lon;timestamp;temperature;humidity
39033;DHT22;24794;51.982;5.878;2022-11-15T00:00:04;9.20;99.90
39033;DHT22;24794;51.982;5.878;2022-11-15T00:01:09;9.20;99.90
39033;DHT22;24794;51.982;5.878;2022-11-15T00:02:10;9.20;99.90
39033;DHT22;24794;51.982;5.878;2022-11-15T00:03:13;9.20;99.90
39033;DHT22;24794;51.982;5.878;2022-11-15T00:04:14;9.20;99.90
39033;DHT22;24794;51.982;5.878;2022-11-15T00:05:15;9.30;99.90
39033;DHT22;24794;51.982;5.878;2022-11-15T00:06:15;9.30;99.90
39033;DHT22;24794;51.982;5.878;2022-11-15T00:07:16;9.30;99.90
39033;DHT22;24794;51.982;5.878;2022-11-15T00:08:17;9.30;99.90
39033;DHT22;24794;51.982;5.878;2022-11-15T00:09:17;9.30;99.90
39033;DHT22;24794;51.982;5.878;2022-11-15T00:10:18;9.30;99.90
39033;DHT22;24794;51.982;5.878;2022-11-15T00:11:19;9.30;99.90
39033;DHT22;24794;51.982;5.878;2022-11-15T00:12:19;9.30;99.90
39033;DHT22;24794;51.982;5.878;2022-11-15T00:13:20;9.30;99.90
39033;DHT22;24794;51.982;5.878;2022-11-15T00:14:20;9.20;99.90
39033;DHT22;24794;51.982;5.878;2022-11-15T00:15:21;9.30;99.90
39033;DHT22;24794;51.982;5.878;2022-11-15T00:16:22;9.30;99.90
39033;DHT22;24794;51.982;5.878;2022-11-15T00:17:22;9.30;99.90
39033;DHT22;24794;51.982;5.878;2022-11-15T00:18:23;9.30;99.90
39033;DHT22;24794;51.982;5.878;2022-11-15T00:19:24;9.30;99.90
39033;DHT22;24794;51.982;5.878;2022-11-15T00:20:24;9.30;99.90
39033;DHT22;24794;51.982;5.878;2022-11-15T00:21:25;9.40;99.90
39033;DHT22;24794;51.982;5.878;2022-11-15T00:22:31;9.40;99.90
39033;DHT22;24794;51.982;5.878;2022-11-15T00:23:33;9.40;99.90
39033;DHT22;24794;51.982;5.878;2022-11-15T00:24:34;9.40;99.90
39033;DHT22;24794;51.982;5.878;2022-11-15T00:25:35;9.50;99.90
39033;DHT22;24794;51.982;5.878;2022-11-15T00:26:35;9.50;99.90
39033;DHT22;24794;51.982;5.878;2022-11-15T00:27:36;9.50;99.90
39033;DHT22;24794;51.982;5.878;2022-11-15T00:28:37;9.50;99.90
39033;DHT22;24794;51.982;5.878;2022-11-15T00:29:37;9.50;99.90
39033;DHT22;24794;51.982;5.878;2022-11-15T00:30:38;9.60;99.90
39033;DHT22;24794;51.982;5.878;2022-11-15T00:31:39;9.60;99.90
39033;DHT22;24794;51.982;5.878;2022-11-15T00:32:39;9.60;99.90
39033;DHT22;24794;51.982;5.878;2022-11-15T00:33:43;9.60;99.90
39033;DHT22;24794;51.982;5.878;2022-11-15T00:34:44;9.60;99.90
39033;DHT22;24794;51.982;5.878;2022-11-15T00:35:44;9.60;99.90
39033;DHT22;24794;51.982;5.878;2022-11-15T00:36:45;9.60;99.90
39033;DHT22;24794;51.982;5.878;2022-11-15T00:37:45;9.60;99.90
39033;DHT22;24794;51.982;5.878;2022-11-15T00:38:47;9.60;99.90
39033;DHT22;24794;51.982;5.878;2022-11-15T00:39:48;9.70;99.90
39033;DHT22;24794;51.982;5.878;2022-11-15T00:40:48;9.70;99.90
39033;DHT22;24794;51.982;5.878;2022-11-15T00:41:49;9.70;99.90
39033;DHT22;24794;51.982;5.878;2022-11-15T00:42:49;9.70;99.90
39033;DHT22;24794;51.982;5.878;2022-11-15T00:43:50;9.70;99.90
39033;DHT22;24794;51.982;5.878;2022-11-15T00:44:50;9.70;99.90
39033;DHT22;24794;51.982;5.878;2022-11-15T00:45:51;9.70;99.90
39033;DHT22;24794;51.982;5.878;2022-11-15T00:46:53;9.70;99.90
39033;DHT22;24794;51.982;5.878;2022-11-15T00:47:53;9.70;99.90
39033;DHT22;24794;51.982;5.878;2022-11-15T00:48:54;9.80;99.90
39033;DHT22;24794;51.982;5.878;2022-11-15T00:49:54;9.70;99.90
39033;DHT22;24794;51.982;5.878;2022-11-15T00:50:55;9.70;99.90
39033;DHT22;24794;51.982;5.878;2022-11-15T00:51:56;9.70;99.90
39033;DHT22;24794;51.982;5.878;2022-11-15T00:52:56;9.80;99.90
39033;DHT22;24794;51.982;5.878;2022-11-15T00:53:57;9.80;99.90
39033;DHT22;24794;51.982;5.878;2022-11-15T00:54:57;9.70;99.90
39033;DHT22;24794;51.982;5.878;2022-11-15T00:55:58;9.70;99.90
39033;DHT22;24794;51.982;5.878;2022-11-15T00:56:58;9.80;99.90
39033;DHT22;24794;51.982;5.878;2022-11-15T00:57:59;9.80;99.90
39033;DHT22;24794;51.982;5.878;2022-11-15T00:58:59;9.80;99.90
39033;DHT22;24794;51.982;5.878;2022-11-15T01:00:00;9.80;99.90
39033;DHT22;24794;51.982;5.878;2022-11-15T01:01:09;9.80;99.90
39033;DHT22;24794;51.982;5.878;2022-11-15T01:02:10;9.80;99.90
39033;DHT22;24794;51.982;5.878;2022-11-15T01:03:10;9.80;99.90
39033;DHT22;24794;51.982;5.878;2022-11-15T01:04:11;9.80;99.90
39033;DHT22;24794;51.982;5.878;2022-11-15T01:05:11;9.80;99.90
39033;DHT22;24794;51.982;5.878;2022-11-15T01:06:12;9.70;99.90
39033;DHT22;24794;51.982;5.878;2022-11-15T01:07:13;9.70;99.90
39033;DHT22;24794;51.982;5.878;2022-11-15T01:08:17;9.70;99.90
39033;DHT22;24794;51.982;5.878;2022-11-15T01:09:17;9.70;99.90
39033;DHT22;24794;51.982;5.878;2022-11-15T01:10:18;9.80;99.90
39033;DHT22;24794;51.982;5.878;2022-11-15T01:11:19;9.80;99.90
39033;DHT22;24794;51.982;5.878;2022-11-15T01:12:20;9.70;99.90
39033;DHT22;24794;51.982;5.878;2022-11-15T01:13:20;9.70;99.90
39033;DHT22;24794;51.982;5.878;2022-11-15T01:14:21;9.70;99.90
39033;DHT22;24794;51.982;5.878;2022-11-15T01:15:22;9.80;99.90
39033;DHT22;24794;51.982;5.878;2022-11-15T01:16:22;9.80;99.90
39033;DHT22;24794;51.982;5.878;2022-11-15T01:17:23;9.80;99.90
39033;DHT22;24794;51.982;5.878;2022-11-15T01:18:24;9.80;99.90
39033;DHT22;24794;51.982;5.878;2022-11-15T01:19:24;9.80;99.90
39033;DHT22;24794;51.982;5.878;2022-11-15T01:20:25;9.80;99.90
39033;DHT22;24794;51.982;5.878;2022-11-15T01:21:26;9.80;99.90
39033;DHT22;24794;51.982;5.878;2022-11-15T01:22:26;9.80;99.90
39033;DHT22;24794;51.982;5.878;2022-11-15T01:23:27;9.80;99.90
39033;DHT22;24794;51.982;5.878;2022-11-15T01:24:27;9.80;99.90
39033;DHT22;24794;51.982;5.878;2022-11-15T01:25:28;9.80;99.90
39033;DHT22;24794;51.982;5.878;2022-11-15T01:26:28;9.80;99.90
39033;DHT22;24794;51.982;5.878;2022-11-15T01:27:29;9.80;99.90
39033;DHT22;24794;51.982;5.878;2022-11-15T01:28:35;9.80;99.90
39033;DHT22;24794;51.982;5.878;2022-11-15T01:29:36;9.80;99.90
39033;DHT22;24794;51.982;5.878;2022-11-15T01:30:36;9.80;99.90
39033;DHT22;24794;51.982;5.878;2022-11-15T01:31:37;9.80;99.90
39033;DHT22;24794;51.982;5.878;2022-11-15T01:32:38;9.90;99.90
39033;DHT22;24794;51.982;5.878;2022-11-15T01:33:38;9.80;99.90
39033;DHT22;24794;51.982;5.878;2022-11-15T01:34:39;9.90;99.90
39033;DHT22;24794;51.982;5.878;2022-11-15T01:35:40;9.90;99.90
39033;DHT22;24794;51.982;5.878;2022-11-15T01:36:40;9.90;99.90
39033;DHT22;24794;51.982;5.878;2022-11-15T01:37:41;9.90;99.90
39033;DHT22;24794;51.982;5.878;2022-11-15T01:38:42;9.90;99.90
39033;DHT22;24794;51.982;5.878;2022-11-15T01:39:42;9.90;99.90
39033;DHT22;24794;51.982;5.878;2022-11-15T01:40:43;9.90;99.90
39033;DHT22;24794;51.982;5.878;2022-11-15T01:41:44;9.90;99.90
39033;DHT22;24794;51.982;5.878;2022-11-15T01:42:44;9.90;99.90
39033;DHT22;24794;51.982;5.878;2022-11-15T01:43:48;9.90;99.90
39033;DHT22;24794;51.982;5.878;2022-11-15T01:44:50;9.90;99.90
39033;DHT22;24794;51.982;5.878;2022-11-15T01:47:27;10.00;99.90
39033;DHT22;24794;51.982;5.878;2022-11-15T01:48:34;10.00;99.90
39033;DHT22;24794;51.982;5.878;2022-11-15T01:49:35;10.00;99.90
39033;DHT22;24794;51.982;5.878;2022-11-15T01:50:38;10.00;99.90
39033;DHT22;24794;51.982;5.878;2022-11-15T01:51:39;10.00;99.90
39033;DHT22;24794;51.982;5.878;2022-11-15T01:52:40;10.00;99.90
39033;DHT22;24794;51.982;5.878;2022-11-15T01:53:44;10.00;99.90
39033;DHT22;24794;51.982;5.878;2022-11-15T01:54:47;10.00;99.90
39033;DHT22;24794;51.982;5.878;2022-11-15T01:55:48;10.00;99.90
39033;DHT22;24794;51.982;5.878;2022-11-15T01:56:55;10.00;99.90
39033;DHT22;24794;51.982;5.878;2022-11-15T01:58:01;10.00;99.90
39033;DHT22;24794;51.982;5.878;2022-11-15T01:59:04;10.00;99.90
39033;DHT22;24794;51.982;5.878;2022-11-15T02:00:07;10.00;99.90
39033;DHT22;24794;51.982;5.878;2022-11-15T02:01:07;10.00;99.90
39033;DHT22;24794;51.982;5.878;2022-11-15T02:02:08;10.00;99.90
39033;DHT22;24794;51.982;5.878;2022-11-15T02:03:09;10.10;99.90
39033;DHT22;24794;51.982;5.878;2022-11-15T02:04:16;10.00;99.90
39033;DHT22;24794;51.982;5.878;2022-11-15T02:05:17;10.10;99.90
39033;DHT22;24794;51.982;5.878;2022-11-15T02:06:18;10.10;99.90
39033;DHT22;24794;51.982;5.878;2022-11-15T02:07:21;10.10;99.90
39033;DHT22;24794;51.982;5.878;2022-11-15T02:08:22;10.10;99.90
39033;DHT22;24794;51.982;5.878;2022-11-15T02:09:23;10.10;99.90
39033;DHT22;24794;51.982;5.878;2022-11-15T02:10:24;10.10;99.90
39033;DHT22;24794;51.982;5.878;2022-11-15T02:11:25;10.10;99.90
39033;DHT22;24794;51.982;5.878;2022-11-15T02:12:26;10.10;99.90
39033;DHT22;24794;51.982;5.878;2022-11-15T02:13:26;10.10;99.90
39033;DHT22;24794;51.982;5.878;2022-11-15T02:14:28;10.10;99.90
39033;DHT22;24794;51.982;5.878;2022-11-15T02:15:36;10.20;99.90
39033;DHT22;24794;51.982;5.878;2022-11-15T02:17:58;10.20;99.90
39033;DHT22;24794;51.982;5.878;2022-11-15T02:29:01;10.20;99.90
39033;DHT22;24794;51.982;5.878;2022-11-15T02:32:40;10.20;99.90
39033;DHT22;24794;51.982;5.878;2022-11-15T02:33:54;10.20;99.90
39033;DHT22;24794;51.982;5.878;2022-11-15T02:35:19;10.20;99.90
39033;DHT22;24794;51.982;5.878;2022-11-15T02:36:43;10.20;99.90
39033;DHT22;24794;51.982;5.878;2022-11-15T02:39:06;10.20;99.90
39033;DHT22;24794;51.982;5.878;2022-11-15T02:41:54;10.20;99.90
39033;DHT22;24794;51.982;5.878;2022-11-15T02:42:59;10.20;99.90
39033;DHT22;24794;51.982;5.878;2022-11-15T02:44:26;10.20;99.90
39033;DHT22;24794;51.982;5.878;2022-11-15T02:45:35;10.20;99.90
39033;DHT22;24794;51.982;5.878;2022-11-15T02:47:59;10.30;99.90
39033;DHT22;24794;51.982;5.878;2022-11-15T02:49:01;10.30;99.90
39033;DHT22;24794;51.982;5.878;2022-11-15T02:50:06;10.20;99.90
39033;DHT22;24794;51.982;5.878;2022-11-15T02:51:08;10.20;99.90
39033;DHT22;24794;51.982;5.878;2022-11-15T02:52:13;10.30;99.90
39033;DHT22;24794;51.982;5.878;2022-11-15T02:53:14;10.30;99.90
39033;DHT22;24794;51.982;5.878;2022-11-15T02:54:20;10.30;99.90
39033;DHT22;24794;51.982;5.878;2022-11-15T02:55:43;10.30;99.90
39033;DHT22;24794;51.982;5.878;2022-11-15T02:56:46;10.30;99.90
39033;DHT22;24794;51.982;5.878;2022-11-15T03:03:25;10.40;99.90
39033;DHT22;24794;51.982;5.878;2022-11-15T03:06:48;10.40;99.90
39033;DHT22;24794;51.982;5.878;2022-11-15T03:08:01;10.40;99.90
39033;DHT22;24794;51.982;5.878;2022-11-15T03:10:56;10.40;99.90
39033;DHT22;24794;51.982;5.878;2022-11-15T03:11:58;10.50;99.90
39033;DHT22;24794;51.982;5.878;2022-11-15T03:15:34;10.50;99.90
39033;DHT22;24794;51.982;5.878;2022-11-15T03:16:42;10.50;99.90
39033;DHT22;24794;51.982;5.878;2022-11-15T03:17:51;10.50;99.90
39033;DHT22;24794;51.982;5.878;2022-11-15T03:19:02;10.50;99.90
39033;DHT22;24794;51.982;5.878;2022-11-15T03:20:06;10.50;99.90
39033;DHT22;24794;51.982;5.878;2022-11-15T03:21:09;10.60;99.90
39033;DHT22;24794;51.982;5.878;2022-11-15T03:22:16;10.60;99.90
39033;DHT22;24794;51.982;5.878;2022-11-15T03:23:18;10.60;99.90
39033;DHT22;24794;51.982;5.878;2022-11-15T03:24:19;10.60;99.90
39033;DHT22;24794;51.982;5.878;2022-11-15T03:25:24;10.60;99.90
39033;DHT22;24794;51.982;5.878;2022-11-15T03:26:25;10.60;99.90
39033;DHT22;24794;51.982;5.878;2022-11-15T03:27:31;10.70;99.90
39033;DHT22;24794;51.982;5.878;2022-11-15T03:28:40;10.60;99.90
39033;DHT22;24794;51.982;5.878;2022-11-15T03:29:47;10.70;99.90
39033;DHT22;24794;51.982;5.878;2022-11-15T03:30:51;10.70;99.90
39033;DHT22;24794;51.982;5.878;2022-11-15T03:31:58;10.70;99.90
39033;DHT22;24794;51.982;5.878;2022-11-15T03:33:02;10.70;99.90
39033;DHT22;24794;51.982;5.878;2022-11-15T03:34:05;10.70;99.90
39033;DHT22;24794;51.982;5.878;2022-11-15T03:35:17;10.80;99.90
39033;DHT22;24794;51.982;5.878;2022-11-15T03:36:19;10.80;99.90
39033;DHT22;24794;51.982;5.878;2022-11-15T03:37:26;10.80;99.90
39033;DHT22;24794;51.982;5.878;2022-11-15T03:38:30;10.80;99.90
39033;DHT22;24794;51.982;5.878;2022-11-15T03:39:32;10.80;99.90
39033;DHT22;24794;51.982;5.878;2022-11-15T03:40:39;10.80;99.90
39033;DHT22;24794;51.982;5.878;2022-11-15T03:41:46;10.80;99.90
39033;DHT22;24794;51.982;5.878;2022-11-15T03:46:01;10.80;99.90
39033;DHT22;24794;51.982;5.878;2022-11-15T03:47:31;10.80;99.90
39033;DHT22;24794;51.982;5.878;2022-11-15T03:48:40;10.80;99.90
39033;DHT22;24794;51.982;5.878;2022-11-15T03:49:45;10.80;99.90
39033;DHT22;24794;51.982;5.878;2022-11-15T03:50:47;10.80;99.90
39033;DHT22;24794;51.982;5.878;2022-11-15T03:51:48;10.90;99.90
39033;DHT22;24794;51.982;5.878;2022-11-15T03:52:49;10.80;99.90
39033;DHT22;24794;51.982;5.878;2022-11-15T03:53:50;10.80;99.90
39033;DHT22;24794;51.982;5.878;2022-11-15T03:54:54;10.80;99.90
39033;DHT22;24794;51.982;5.878;2022-11-15T03:55:55;10.90;99.90
39033;DHT22;24794;51.982;5.878;2022-11-15T03:56:56;10.90;99.90
39033;DHT22;24794;51.982;5.878;2022-11-15T03:57:59;10.90;99.90
39033;DHT22;24794;51.982;5.878;2022-11-15T03:59:00;10.90;99.90
39033;DHT22;24794;51.982;5.878;2022-11-15T04:00:00;10.90;99.90
39033;DHT22;24794;51.982;5.878;2022-11-15T04:01:01;10.90;99.90
39033;DHT22;24794;51.982;5.878;2022-11-15T04:02:01;10.90;99.90
39033;DHT22;24794;51.982;5.878;2022-11-15T04:03:02;10.90;99.90
39033;DHT22;24794;51.982;5.878;2022-11-15T04:04:03;10.90;99.90
39033;DHT22;24794;51.982;5.878;2022-11-15T04:05:03;11.00;99.90
39033;DHT22;24794;51.982;5.878;2022-11-15T04:06:04;10.90;99.90
39033;DHT22;24794;51.982;5.878;2022-11-15T04:07:05;11.00;99.90
39033;DHT22;24794;51.982;5.878;2022-11-15T04:08:06;11.00;99.90
39033;DHT22;24794;51.982;5.878;2022-11-15T04:09:06;11.00;99.90
39033;DHT22;24794;51.982;5.878;2022-11-15T04:10:09;11.00;99.90
39033;DHT22;24794;51.982;5.878;2022-11-15T04:11:10;11.00;99.90
39033;DHT22;24794;51.982;5.878;2022-11-15T04:12:11;11.00;99.90
39033;DHT22;24794;51.982;5.878;2022-11-15T04:13:11;11.00;99.90
39033;DHT22;24794;51.982;5.878;2022-11-15T04:14:12;11.00;99.90
39033;DHT22;24794;51.982;5.878;2022-11-15T04:15:18;11.00;99.90
39033;DHT22;24794;51.982;5.878;2022-11-15T04:16:19;11.00;99.90
39033;DHT22;24794;51.982;5.878;2022-11-15T04:17:19;11.10;99.90
39033;DHT22;24794;51.982;5.878;2022-11-15T04:18:20;11.10;99.90
39033;DHT22;24794;51.982;5.878;2022-11-15T04:19:20;11.10;99.90
39033;DHT22;24794;51.982;5.878;2022-11-15T04:20:39;11.00;99.90
39033;DHT22;24794;51.982;5.878;2022-11-15T04:21:58;11.10;99.90
39033;DHT22;24794;51.982;5.878;2022-11-15T04:23:21;11.10;99.90
39033;DHT22;24794;51.982;5.878;2022-11-15T04:24:40;11.10;99.90
39033;DHT22;24794;51.982;5.878;2022-11-15T04:25:41;11.20;99.90
39033;DHT22;24794;51.982;5.878;2022-11-15T04:26:42;11.20;99.90
39033;DHT22;24794;51.982;5.878;2022-11-15T04:27:43;11.20;99.90
39033;DHT22;24794;51.982;5.878;2022-11-15T04:28:43;11.20;99.90
39033;DHT22;24794;51.982;5.878;2022-11-15T04:30:03;11.20;99.90
39033;DHT22;24794;51.982;5.878;2022-11-15T04:31:04;11.20;99.90
39033;DHT22;24794;51.982;5.878;2022-11-15T04:32:06;11.20;99.90
39033;DHT22;24794;51.982;5.878;2022-11-15T04:33:07;11.20;99.90
39033;DHT22;24794;51.982;5.878;2022-11-15T04:34:07;11.20;99.90
39033;DHT22;24794;51.982;5.878;2022-11-15T04:35:08;11.20;99.90
39033;DHT22;24794;51.982;5.878;2022-11-15T04:36:09;11.20;99.90
39033;DHT22;24794;51.982;5.878;2022-11-15T04:37:28;11.20;99.90
39033;DHT22;24794;51.982;5.878;2022-11-15T04:38:28;11.20;99.90
39033;DHT22;24794;51.982;5.878;2022-11-15T04:39:29;11.30;99.90
39033;DHT22;24794;51.982;5.878;2022-11-15T04:40:30;11.30;99.90
39033;DHT22;24794;51.982;5.878;2022-11-15T04:41:30;11.30;99.90
39033;DHT22;24794;51.982;5.878;2022-11-15T04:42:31;11.30;99.90
39033;DHT22;24794;51.982;5.878;2022-11-15T04:43:31;11.30;99.90
39033;DHT22;24794;51.982;5.878;2022-11-15T04:44:32;11.30;99.90
39033;DHT22;24794;51.982;5.878;2022-11-15T04:45:32;11.30;99.90
39033;DHT22;24794;51.982;5.878;2022-11-15T04:46:33;11.30;99.90
39033;DHT22;24794;51.982;5.878;2022-11-15T04:47:34;11.30;99.90
39033;DHT22;24794;51.982;5.878;2022-11-15T04:48:34;11.40;99.90
39033;DHT22;24794;51.982;5.878;2022-11-15T04:49:35;11.40;99.90
39033;DHT22;24794;51.982;5.878;2022-11-15T04:50:35;11.30;99.90
39033;DHT22;24794;51.982;5.878;2022-11-15T04:51:36;11.40;99.90
39033;DHT22;24794;51.982;5.878;2022-11-15T04:52:36;11.40;99.90
39033;DHT22;24794;51.982;5.878;2022-11-15T04:53:37;11.40;99.90
39033;DHT22;24794;51.982;5.878;2022-11-15T04:54:38;11.40;99.90
39033;DHT22;24794;51.982;5.878;2022-11-15T04:55:38;11.40;99.90
39033;DHT22;24794;51.982;5.878;2022-11-15T04:56:39;11.40;99.90
39033;DHT22;24794;51.982;5.878;2022-11-15T04:57:39;11.40;99.90
39033;DHT22;24794;51.982;5.878;2022-11-15T04:58:40;11.50;99.90
39033;DHT22;24794;51.982;5.878;2022-11-15T04:59:40;11.50;99.90
39033;DHT22;24794;51.982;5.878;2022-11-15T05:00:41;11.40;99.90
39033;DHT22;24794;51.982;5.878;2022-11-15T05:01:41;11.40;99.90
39033;DHT22;24794;51.982;5.878;2022-11-15T05:02:42;11.40;99.90
39033;DHT22;24794;51.982;5.878;2022-11-15T05:04:01;11.40;99.90
39033;DHT22;24794;51.982;5.878;2022-11-15T05:05:20;11.50;99.90
39033;DHT22;24794;51.982;5.878;2022-11-15T05:06:20;11.50;99.90
39033;DHT22;24794;51.982;5.878;2022-11-15T05:07:21;11.50;99.90
39033;DHT22;24794;51.982;5.878;2022-11-15T05:08:22;11.50;99.90
39033;DHT22;24794;51.982;5.878;2022-11-15T05:09:23;11.50;99.90
39033;DHT22;24794;51.982;5.878;2022-11-15T05:10:24;11.50;99.90
39033;DHT22;24794;51.982;5.878;2022-11-15T05:11:24;11.50;99.90
39033;DHT22;24794;51.982;5.878;2022-11-15T05:12:25;11.50;99.90
39033;DHT22;24794;51.982;5.878;2022-11-15T05:13:25;11.50;99.90
39033;DHT22;24794;51.982;5.878;2022-11-15T05:14:26;11.50;99.90
39033;DHT22;24794;51.982;5.878;2022-11-15T05:15:26;11.50;99.90
39033;DHT22;24794;51.982;5.878;2022-11-15T05:16:27;11.50;99.90
39033;DHT22;24794;51.982;5.878;2022-11-15T05:17:27;11.50;99.90
39033;DHT22;24794;51.982;5.878;2022-11-15T05:18:28;11.50;99.90
39033;DHT22;24794;51.982;5.878;2022-11-15T05:19:28;11.50;99.90
39033;DHT22;24794;51.982;5.878;2022-11-15T05:20:29;11.50;99.90
39033;DHT22;24794;51.982;5.878;2022-11-15T05:21:30;11.50;99.90
39033;DHT22;24794;51.982;5.878;2022-11-15T05:22:30;11.50;99.90
39033;DHT22;24794;51.982;5.878;2022-11-15T05:23:31;11.50;99.90
39033;DHT22;24794;51.982;5.878;2022-11-15T05:24:31;11.50;99.90
39033;DHT22;24794;51.982;5.878;2022-11-15T05:25:32;11.60;99.90
39033;DHT22;24794;51.982;5.878;2022-11-15T05:26:33;11.50;99.90
39033;DHT22;24794;51.982;5.878;2022-11-15T05:27:34;11.60;99.90
39033;DHT22;24794;51.982;5.878;2022-11-15T05:28:35;11.60;99.90
39033;DHT22;24794;51.982;5.878;2022-11-15T05:29:36;11.60;99.90
39033;DHT22;24794;51.982;5.878;2022-11-15T05:30:37;11.60;99.90
39033;DHT22;24794;51.982;5.878;2022-11-15T05:31:39;11.60;99.90
39033;DHT22;24794;51.982;5.878;2022-11-15T05:32:41;11.60;99.90
39033;DHT22;24794;51.982;5.878;2022-11-15T05:33:42;11.60;99.90
39033;DHT22;24794;51.982;5.878;2022-11-15T05:34:44;11.60;99.90
39033;DHT22;24794;51.982;5.878;2022-11-15T05:35:59;11.60;99.90
39033;DHT22;24794;51.982;5.878;2022-11-15T05:37:00;11.60;99.90
39033;DHT22;24794;51.982;5.878;2022-11-15T05:38:01;11.60;99.90
39033;DHT22;24794;51.982;5.878;2022-11-15T05:39:02;11.60;99.90
39033;DHT22;24794;51.982;5.878;2022-11-15T05:40:04;11.60;99.90
39033;DHT22;24794;51.982;5.878;2022-11-15T05:41:05;11.60;99.90
39033;DHT22;24794;51.982;5.878;2022-11-15T05:42:12;11.70;99.90
39033;DHT22;24794;51.982;5.878;2022-11-15T05:43:13;11.60;99.90
39033;DHT22;24794;51.982;5.878;2022-11-15T05:44:16;11.70;99.90
39033;DHT22;24794;51.982;5.878;2022-11-15T05:45:18;11.70;99.90
39033;DHT22;24794;51.982;5.878;2022-11-15T05:46:19;11.70;99.90
39033;DHT22;24794;51.982;5.878;2022-11-15T05:47:22;11.70;99.90
39033;DHT22;24794;51.982;5.878;2022-11-15T05:48:24;11.70;99.90
39033;DHT22;24794;51.982;5.878;2022-11-15T05:49:27;11.70;99.90
39033;DHT22;24794;51.982;5.878;2022-11-15T05:50:30;11.70;99.90
39033;DHT22;24794;51.982;5.878;2022-11-15T05:51:31;11.70;99.90
39033;DHT22;24794;51.982;5.878;2022-11-15T05:52:35;11.70;99.90
39033;DHT22;24794;51.982;5.878;2022-11-15T05:53:37;11.70;99.90
39033;DHT22;24794;51.982;5.878;2022-11-15T05:54:38;11.70;99.90
39033;DHT22;24794;51.982;5.878;2022-11-15T05:55:40;11.70;99.90
39033;DHT22;24794;51.982;5.878;2022-11-15T05:56:41;11.70;99.90
39033;DHT22;24794;51.982;5.878;2022-11-15T05:57:42;11.70;99.90
39033;DHT22;24794;51.982;5.878;2022-11-15T05:58:43;11.70;99.90
39033;DHT22;24794;51.982;5.878;2022-11-15T05:59:43;11.70;99.90
39033;DHT22;24794;51.982;5.878;2022-11-15T06:00:44;11.70;99.90
39033;DHT22;24794;51.982;5.878;2022-11-15T06:01:45;11.70;99.90
39033;DHT22;24794;51.982;5.878;2022-11-15T06:02:46;11.80;99.90
39033;DHT22;24794;51.982;5.878;2022-11-15T06:03:46;11.80;99.90
39033;DHT22;24794;51.982;5.878;2022-11-15T06:04:47;11.70;99.90
39033;DHT22;24794;51.982;5.878;2022-11-15T06:05:47;11.80;99.90
39033;DHT22;24794;51.982;5.878;2022-11-15T06:06:48;11.70;99.90
39033;DHT22;24794;51.982;5.878;2022-11-15T06:07:48;11.80;99.90
39033;DHT22;24794;51.982;5.878;2022-11-15T06:08:49;11.80;99.90
39033;DHT22;24794;51.982;5.878;2022-11-15T06:09:49;11.80;99.90
39033;DHT22;24794;51.982;5.878;2022-11-15T06:10:50;11.80;99.90
39033;DHT22;24794;51.982;5.878;2022-11-15T06:11:51;11.80;99.90
39033;DHT22;24794;51.982;5.878;2022-11-15T06:13:02;11.80;99.90
39033;DHT22;24794;51.982;5.878;2022-11-15T06:14:03;11.80;99.90
39033;DHT22;24794;51.982;5.878;2022-11-15T06:15:04;11.80;99.90
39033;DHT22;24794;51.982;5.878;2022-11-15T06:16:05;11.80;99.90
39033;DHT22;24794;51.982;5.878;2022-11-15T06:17:05;11.70;99.90
39033;DHT22;24794;51.982;5.878;2022-11-15T06:18:06;11.80;99.90
39033;DHT22;24794;51.982;5.878;2022-11-15T06:19:07;11.80;99.90
39033;DHT22;24794;51.982;5.878;2022-11-15T06:20:08;11.80;99.90
39033;DHT22;24794;51.982;5.878;2022-11-15T06:21:09;11.70;99.90
39033;DHT22;24794;51.982;5.878;2022-11-15T06:22:09;11.70;99.90
39033;DHT22;24794;51.982;5.878;2022-11-15T06:23:10;11.80;99.90
39033;DHT22;24794;51.982;5.878;2022-11-15T06:24:10;11.80;99.90
39033;DHT22;24794;51.982;5.878;2022-11-15T06:25:11;11.80;99.90
39033;DHT22;24794;51.982;5.878;2022-11-15T06:26:12;11.80;99.90
39033;DHT22;24794;51.982;5.878;2022-11-15T06:27:12;11.80;99.90
39033;DHT22;24794;51.982;5.878;2022-11-15T06:28:13;11.80;99.90
39033;DHT22;24794;51.982;5.878;2022-11-15T06:29:13;11.80;99.90
39033;DHT22;24794;51.982;5.878;2022-11-15T06:30:14;11.80;99.90
39033;DHT22;24794;51.982;5.878;2022-11-15T06:31:14;11.80;99.90
39033;DHT22;24794;51.982;5.878;2022-11-15T06:32:15;11.80;99.90
39033;DHT22;24794;51.982;5.878;2022-11-15T06:33:18;11.80;99.90
39033;DHT22;24794;51.982;5.878;2022-11-15T06:34:19;11.80;99.90
39033;DHT22;24794;51.982;5.878;2022-11-15T06:35:19;11.80;99.90
39033;DHT22;24794;51.982;5.878;2022-11-15T06:36:20;11.90;99.90
39033;DHT22;24794;51.982;5.878;2022-11-15T06:37:21;11.90;99.90
39033;DHT22;24794;51.982;5.878;2022-11-15T06:38:21;11.80;99.90
39033;DHT22;24794;51.982;5.878;2022-11-15T06:39:22;11.80;99.90
39033;DHT22;24794;51.982;5.878;2022-11-15T06:40:22;11.80;99.90
39033;DHT22;24794;51.982;5.878;2022-11-15T06:41:23;11.90;99.90
39033;DHT22;24794;51.982;5.878;2022-11-15T06:42:23;11.80;99.90
39033;DHT22;24794;51.982;5.878;2022-11-15T06:43:24;11.80;99.90
39033;DHT22;24794;51.982;5.878;2022-11-15T06:44:24;11.90;99.90
39033;DHT22;24794;51.982;5.878;2022-11-15T06:45:26;11.80;99.90
39033;DHT22;24794;51.982;5.878;2022-11-15T06:46:26;11.80;99.90
39033;DHT22;24794;51.982;5.878;2022-11-15T06:47:27;11.90;99.90
39033;DHT22;24794;51.982;5.878;2022-11-15T06:48:28;11.90;99.90
39033;DHT22;24794;51.982;5.878;2022-11-15T06:49:29;11.90;99.90
39033;DHT22;24794;51.982;5.878;2022-11-15T06:50:29;11.90;99.90
39033;DHT22;24794;51.982;5.878;2022-11-15T06:51:30;11.90;99.90
39033;DHT22;24794;51.982;5.878;2022-11-15T06:52:32;11.90;99.90
39033;DHT22;24794;51.982;5.878;2022-11-15T06:53:32;11.90;99.90
39033;DHT22;24794;51.982;5.878;2022-11-15T06:54:33;11.90;99.90
39033;DHT22;24794;51.982;5.878;2022-11-15T06:55:34;12.00;99.90
39033;DHT22;24794;51.982;5.878;2022-11-15T06:56:34;11.90;99.90
39033;DHT22;24794;51.982;5.878;2022-11-15T06:57:36;12.00;99.90
39033;DHT22;24794;51.982;5.878;2022-11-15T06:58:36;12.00;99.90
39033;DHT22;24794;51.982;5.878;2022-11-15T06:59:37;12.00;99.90
39033;DHT22;24794;51.982;5.878;2022-11-15T07:00:38;12.00;99.90
39033;DHT22;24794;51.982;5.878;2022-11-15T07:01:40;12.00;99.90
39033;DHT22;24794;51.982;5.878;2022-11-15T07:02:41;12.00;99.90
39033;DHT22;24794;51.982;5.878;2022-11-15T07:03:42;12.00;99.90
39033;DHT22;24794;51.982;5.878;2022-11-15T07:04:42;12.00;99.90
39033;DHT22;24794;51.982;5.878;2022-11-15T07:05:51;12.00;99.90
39033;DHT22;24794;51.982;5.878;2022-11-15T07:06:52;12.00;99.90
39033;DHT22;24794;51.982;5.878;2022-11-15T07:07:55;12.00;99.90
39033;DHT22;24794;51.982;5.878;2022-11-15T07:08:56;12.10;99.90
39033;DHT22;24794;51.982;5.878;2022-11-15T07:09:56;12.10;99.90
39033;DHT22;24794;51.982;5.878;2022-11-15T07:11:02;12.00;99.90